sensor_id;sensor_type;location;lat;lon;timestamp;pressure;altitude;pressure_sealevel;temperature;humidity
11605;BME280;5858;43.076;25.626;2022-08-19T00:00:09;98837.91;;;25.94;61.98
11605;BME280;5858;43.076;25.626;2022-08-19T00:02:36;98791.22;;;25.38;62.90
11605;BME280;5858;43.076;25.626;2022-08-19T00:05:04;98795.53;;;25.20;63.75
11605;BME280;5858;43.076;25.626;2022-08-19T00:07:31;98846.78;;;25.67;63.07
11605;BME280;5858;43.076;25.626;2022-08-19T00:09:58;98712.16;;;24.84;62.77
11605;BME280;5858;43.076;25.626;2022-08-19T00:12:26;98786.91;;;25.32;62.73
11605;BME280;5858;43.076;25.626;2022-08-19T00:14:53;98834.19;;;25.66;62.51
11605;BME280;5858;43.076;25.626;2022-08-19T00:17:20;98856.44;;;25.84;62.15
11605;BME280;5858;43.076;25.626;2022-08-19T00:19:47;98832.25;;;25.67;62.29
11605;BME280;5858;43.076;25.626;2022-08-19T00:22:14;98759.09;;;24.96;63.13
11605;BME280;5858;43.076;25.626;2022-08-19T00:24:43;98843.38;;;25.52;63.13
11605;BME280;5858;43.076;25.626;2022-08-19T00:27:11;98849.25;;;25.64;62.49
11605;BME280;5858;43.076;25.626;2022-08-19T00:29:39;98796.38;;;25.21;62.47
11605;BME280;5858;43.076;25.626;2022-08-19T00:32:06;98806.97;;;25.27;62.89
11605;BME280;5858;43.076;25.626;2022-08-19T00:34:33;98760.78;;;24.92;62.76
11605;BME280;5858;43.076;25.626;2022-08-19T00:37:00;98837.56;;;25.34;63.49
11605;BME280;5858;43.076;25.626;2022-08-19T00:39:30;98754.81;;;24.61;64.20
11605;BME280;5858;43.076;25.626;2022-08-19T00:42:03;98796.72;;;24.85;64.08
11605;BME280;5858;43.076;25.626;2022-08-19T00:44:31;98811.28;;;25.09;63.87
11605;BME280;5858;43.076;25.626;2022-08-19T00:47:00;98858.41;;;25.30;63.98
11605;BME280;5858;43.076;25.626;2022-08-19T00:49:31;98782.22;;;24.85;63.92
11605;BME280;5858;43.076;25.626;2022-08-19T00:52:04;98789.69;;;25.03;63.07
11605;BME280;5858;43.076;25.626;2022-08-19T00:54:35;98758.75;;;24.78;63.29
11605;BME280;5858;43.076;25.626;2022-08-19T00:57:05;98821.19;;;25.29;63.31
11605;BME280;5858;43.076;25.626;2022-08-19T00:59:35;98738.13;;;24.57;64.04
11605;BME280;5858;43.076;25.626;2022-08-19T01:02:04;98691.97;;;24.22;64.08
11605;BME280;5858;43.076;25.626;2022-08-19T01:04:31;98796.94;;;24.89;64.42
11605;BME280;5858;43.076;25.626;2022-08-19T01:06:58;98814.91;;;25.00;64.55
11605;BME280;5858;43.076;25.626;2022-08-19T01:09:26;98829.31;;;24.82;65.34
11605;BME280;5858;43.076;25.626;2022-08-19T01:11:53;98834.31;;;24.74;65.76
11605;BME280;5858;43.076;25.626;2022-08-19T01:14:20;98770.25;;;24.46;65.39
11605;BME280;5858;43.076;25.626;2022-08-19T01:16:47;98798.81;;;24.35;66.05
11605;BME280;5858;43.076;25.626;2022-08-19T01:19:22;98817.81;;;24.51;66.05
11605;BME280;5858;43.076;25.626;2022-08-19T01:21:57;98776.06;;;24.40;65.42
11605;BME280;5858;43.076;25.626;2022-08-19T01:24:28;98742.63;;;24.14;65.34
11605;BME280;5858;43.076;25.626;2022-08-19T01:26:56;98844.09;;;24.80;65.46
11605;BME280;5858;43.076;25.626;2022-08-19T01:29:23;98836.66;;;24.52;66.46
11605;BME280;5858;43.076;25.626;2022-08-19T01:31:50;98815.06;;;24.51;65.90
11605;BME280;5858;43.076;25.626;2022-08-19T01:34:19;98788.44;;;24.32;65.77
11605;BME280;5858;43.076;25.626;2022-08-19T01:36:47;98785.75;;;24.27;65.56
11605;BME280;5858;43.076;25.626;2022-08-19T01:39:17;98821.78;;;24.34;66.19
11605;BME280;5858;43.076;25.626;2022-08-19T01:41:46;98820.28;;;24.08;67.12
11605;BME280;5858;43.076;25.626;2022-08-19T01:44:13;98766.41;;;23.74;66.46
11605;BME280;5858;43.076;25.626;2022-08-19T01:46:42;98776.81;;;23.62;67.41
11605;BME280;5858;43.076;25.626;2022-08-19T01:49:09;98836.31;;;24.25;66.49
11605;BME280;5858;43.076;25.626;2022-08-19T01:51:37;98848.38;;;24.58;65.90
11605;BME280;5858;43.076;25.626;2022-08-19T01:54:04;98771.91;;;23.69;66.78
11605;BME280;5858;43.076;25.626;2022-08-19T01:56:31;98830.97;;;24.04;66.96
11605;BME280;5858;43.076;25.626;2022-08-19T01:59:02;98775.78;;;23.48;68.64
11605;BME280;5858;43.076;25.626;2022-08-19T02:01:29;98858.59;;;24.03;68.78
11605;BME280;5858;43.076;25.626;2022-08-19T02:03:57;98782.22;;;23.18;70.61
11605;BME280;5858;43.076;25.626;2022-08-19T02:06:26;98724.38;;;23.01;69.87
11605;BME280;5858;43.076;25.626;2022-08-19T02:08:52;98866.31;;;23.91;70.40
11605;BME280;5858;43.076;25.626;2022-08-19T02:11:21;98766.81;;;23.42;69.63
11605;BME280;5858;43.076;25.626;2022-08-19T02:13:51;98874.69;;;24.04;69.34
11605;BME280;5858;43.076;25.626;2022-08-19T02:16:20;98872.47;;;24.16;69.20
11605;BME280;5858;43.076;25.626;2022-08-19T02:18:47;98870.50;;;24.22;69.32
11605;BME280;5858;43.076;25.626;2022-08-19T02:21:14;98796.47;;;23.69;69.31
11605;BME280;5858;43.076;25.626;2022-08-19T02:23:41;98822.19;;;23.58;69.34
11605;BME280;5858;43.076;25.626;2022-08-19T02:26:09;98850.22;;;23.84;69.47
11605;BME280;5858;43.076;25.626;2022-08-19T02:28:36;98870.97;;;23.90;69.82
11605;BME280;5858;43.076;25.626;2022-08-19T02:31:03;98788.97;;;23.31;69.53
11605;BME280;5858;43.076;25.626;2022-08-19T02:33:31;98899.75;;;23.72;70.96
11605;BME280;5858;43.076;25.626;2022-08-19T02:35:58;98898.66;;;23.63;71.15
11605;BME280;5858;43.076;25.626;2022-08-19T02:38:25;98847.09;;;23.41;70.94
11605;BME280;5858;43.076;25.626;2022-08-19T02:40:53;98855.88;;;23.33;70.87
11605;BME280;5858;43.076;25.626;2022-08-19T02:43:20;98893.47;;;23.51;70.87
11605;BME280;5858;43.076;25.626;2022-08-19T02:45:48;98882.00;;;23.54;70.20
11605;BME280;5858;43.076;25.626;2022-08-19T02:48:15;98871.34;;;23.53;70.22
11605;BME280;5858;43.076;25.626;2022-08-19T02:50:46;98879.03;;;23.46;70.09
11605;BME280;5858;43.076;25.626;2022-08-19T02:53:13;98883.94;;;23.49;70.17
11605;BME280;5858;43.076;25.626;2022-08-19T02:55:44;98842.81;;;23.05;70.69
11605;BME280;5858;43.076;25.626;2022-08-19T02:58:12;98774.38;;;22.55;71.44
11605;BME280;5858;43.076;25.626;2022-08-19T03:00:44;98830.84;;;22.96;71.06
11605;BME280;5858;43.076;25.626;2022-08-19T03:03:11;98822.38;;;22.87;72.18
11605;BME280;5858;43.076;25.626;2022-08-19T03:05:38;98899.56;;;23.28;72.08
11605;BME280;5858;43.076;25.626;2022-08-19T03:08:07;98915.38;;;23.36;72.28
11605;BME280;5858;43.076;25.626;2022-08-19T03:10:41;98881.31;;;22.98;73.71
11605;BME280;5858;43.076;25.626;2022-08-19T03:13:10;98912.41;;;23.22;73.86
11605;BME280;5858;43.076;25.626;2022-08-19T03:15:39;98854.59;;;22.90;73.37
11605;BME280;5858;43.076;25.626;2022-08-19T03:18:06;98901.50;;;23.07;73.74
11605;BME280;5858;43.076;25.626;2022-08-19T03:20:34;98882.66;;;22.75;74.86
11605;BME280;5858;43.076;25.626;2022-08-19T03:23:03;98860.00;;;22.29;76.59
11605;BME280;5858;43.076;25.626;2022-08-19T03:25:36;98899.53;;;22.42;77.45
11605;BME280;5858;43.076;25.626;2022-08-19T03:28:03;98855.59;;;22.13;76.90
11605;BME280;5858;43.076;25.626;2022-08-19T03:30:30;98840.88;;;22.19;76.23
11605;BME280;5858;43.076;25.626;2022-08-19T03:32:57;98906.38;;;22.65;75.63
11605;BME280;5858;43.076;25.626;2022-08-19T03:35:24;98872.56;;;22.45;75.18
11605;BME280;5858;43.076;25.626;2022-08-19T03:37:51;98930.16;;;22.84;75.02
11605;BME280;5858;43.076;25.626;2022-08-19T03:40:18;98842.56;;;22.25;75.15
11605;BME280;5858;43.076;25.626;2022-08-19T03:42:46;98905.56;;;22.59;74.91
11605;BME280;5858;43.076;25.626;2022-08-19T03:45:14;98830.78;;;22.09;74.70
11605;BME280;5858;43.076;25.626;2022-08-19T03:47:41;98898.19;;;22.49;75.01
11605;BME280;5858;43.076;25.626;2022-08-19T03:50:08;98946.25;;;22.86;74.81
11605;BME280;5858;43.076;25.626;2022-08-19T03:52:36;98782.47;;;21.74;74.73
11605;BME280;5858;43.076;25.626;2022-08-19T03:55:03;98922.47;;;22.61;74.88
11605;BME280;5858;43.076;25.626;2022-08-19T03:57:30;98838.66;;;22.00;75.15
11605;BME280;5858;43.076;25.626;2022-08-19T03:59:59;98839.53;;;22.21;74.08
11605;BME280;5858;43.076;25.626;2022-08-19T04:02:25;98938.34;;;22.95;74.09
11605;BME280;5858;43.076;25.626;2022-08-19T04:04:53;98960.44;;;23.08;73.98
11605;BME280;5858;43.076;25.626;2022-08-19T04:07:20;98948.44;;;23.04;73.92
11605;BME280;5858;43.076;25.626;2022-08-19T04:09:47;98926.31;;;23.06;73.30
11605;BME280;5858;43.076;25.626;2022-08-19T04:12:15;98971.34;;;23.34;73.84
11605;BME280;5858;43.076;25.626;2022-08-19T04:14:42;98953.59;;;23.36;73.73
11605;BME280;5858;43.076;25.626;2022-08-19T04:17:11;98869.88;;;22.91;73.47
11605;BME280;5858;43.076;25.626;2022-08-19T04:19:38;98894.88;;;23.39;72.43
11605;BME280;5858;43.076;25.626;2022-08-19T04:22:05;98975.81;;;24.20;70.83
11605;BME280;5858;43.076;25.626;2022-08-19T04:24:33;98974.66;;;24.36;70.46
11605;BME280;5858;43.076;25.626;2022-08-19T04:27:00;98884.44;;;24.31;68.40
11605;BME280;5858;43.076;25.626;2022-08-19T04:29:28;98914.13;;;24.87;66.61
11605;BME280;5858;43.076;25.626;2022-08-19T04:31:56;98950.38;;;25.36;65.39
11605;BME280;5858;43.076;25.626;2022-08-19T04:34:27;98932.38;;;25.30;65.14
11605;BME280;5858;43.076;25.626;2022-08-19T04:36:56;98965.69;;;25.71;64.50
11605;BME280;5858;43.076;25.626;2022-08-19T04:39:30;98921.16;;;25.56;63.89
11605;BME280;5858;43.076;25.626;2022-08-19T04:42:11;98917.31;;;25.57;63.85
11605;BME280;5858;43.076;25.626;2022-08-19T04:44:56;98896.81;;;25.49;63.78
11605;BME280;5858;43.076;25.626;2022-08-19T04:47:24;98894.91;;;25.50;63.58
11605;BME280;5858;43.076;25.626;2022-08-19T04:49:52;98835.34;;;25.36;62.72
11605;BME280;5858;43.076;25.626;2022-08-19T04:52:19;98858.56;;;25.68;61.87
11605;BME280;5858;43.076;25.626;2022-08-19T04:54:46;98884.81;;;25.93;61.07
11605;BME280;5858;43.076;25.626;2022-08-19T04:57:15;98899.38;;;26.12;60.84
11605;BME280;5858;43.076;25.626;2022-08-19T04:59:41;98941.81;;;26.76;59.38
11605;BME280;5858;43.076;25.626;2022-08-19T05:02:09;98904.50;;;26.75;58.53
11605;BME280;5858;43.076;25.626;2022-08-19T05:04:38;98972.84;;;27.60;57.24
11605;BME280;5858;43.076;25.626;2022-08-19T05:07:11;98955.56;;;27.74;55.94
11605;BME280;5858;43.076;25.626;2022-08-19T05:09:38;98946.81;;;27.85;54.02
11605;BME280;5858;43.076;25.626;2022-08-19T05:12:05;98959.75;;;28.12;53.35
11605;BME280;5858;43.076;25.626;2022-08-19T05:14:32;98965.56;;;28.38;52.88
11605;BME280;5858;43.076;25.626;2022-08-19T05:17:00;98960.41;;;28.59;51.81
11605;BME280;5858;43.076;25.626;2022-08-19T05:19:27;98970.84;;;28.84;50.87
11605;BME280;5858;43.076;25.626;2022-08-19T05:22:13;98950.06;;;29.01;50.20
11605;BME280;5858;43.076;25.626;2022-08-19T05:24:57;98947.94;;;28.98;49.56
11605;BME280;5858;43.076;25.626;2022-08-19T05:27:23;98946.97;;;29.25;50.71
11605;BME280;5858;43.076;25.626;2022-08-19T05:29:50;98957.19;;;29.47;49.13
11605;BME280;5858;43.076;25.626;2022-08-19T05:32:17;98971.28;;;29.76;48.08
11605;BME280;5858;43.076;25.626;2022-08-19T05:34:44;98905.44;;;29.43;47.79
11605;BME280;5858;43.076;25.626;2022-08-19T05:37:12;98915.06;;;29.55;47.03
11605;BME280;5858;43.076;25.626;2022-08-19T05:39:39;98960.00;;;29.95;47.21
11605;BME280;5858;43.076;25.626;2022-08-19T05:42:09;98894.25;;;29.88;46.37
11605;BME280;5858;43.076;25.626;2022-08-19T05:44:38;98930.75;;;30.33;44.46
11605;BME280;5858;43.076;25.626;2022-08-19T05:47:10;98904.44;;;30.53;43.29
11605;BME280;5858;43.076;25.626;2022-08-19T05:49:38;98915.03;;;30.86;42.13
11605;BME280;5858;43.076;25.626;2022-08-19T05:52:06;98823.38;;;30.58;41.21
11605;BME280;5858;43.076;25.626;2022-08-19T05:54:36;98938.69;;;31.39;41.10
11605;BME280;5858;43.076;25.626;2022-08-19T05:57:05;98939.75;;;31.72;40.39
11605;BME280;5858;43.076;25.626;2022-08-19T05:59:32;98903.56;;;31.39;40.51
11605;BME280;5858;43.076;25.626;2022-08-19T06:02:01;98919.88;;;31.61;40.03
11605;BME280;5858;43.076;25.626;2022-08-19T06:04:29;98903.25;;;31.79;39.58
11605;BME280;5858;43.076;25.626;2022-08-19T06:06:56;98910.50;;;32.21;38.39
11605;BME280;5858;43.076;25.626;2022-08-19T06:09:23;98939.91;;;32.76;38.03
11605;BME280;5858;43.076;25.626;2022-08-19T06:11:54;98931.44;;;32.81;36.28
11605;BME280;5858;43.076;25.626;2022-08-19T06:14:29;98896.03;;;32.99;35.35
11605;BME280;5858;43.076;25.626;2022-08-19T06:16:57;98914.81;;;33.14;35.34
11605;BME280;5858;43.076;25.626;2022-08-19T06:19:27;98972.28;;;33.71;35.59
11605;BME280;5858;43.076;25.626;2022-08-19T06:21:56;98962.59;;;34.02;34.33
11605;BME280;5858;43.076;25.626;2022-08-19T06:24:25;98948.72;;;33.90;34.17
11605;BME280;5858;43.076;25.626;2022-08-19T06:26:56;98914.25;;;34.03;34.81
11605;BME280;5858;43.076;25.626;2022-08-19T06:29:24;98966.44;;;34.09;33.99
11605;BME280;5858;43.076;25.626;2022-08-19T06:31:54;98908.63;;;33.42;35.60
11605;BME280;5858;43.076;25.626;2022-08-19T06:34:22;98969.22;;;34.09;35.52
11605;BME280;5858;43.076;25.626;2022-08-19T06:36:51;98922.47;;;33.87;34.38
11605;BME280;5858;43.076;25.626;2022-08-19T06:39:21;98866.44;;;33.48;34.68
11605;BME280;5858;43.076;25.626;2022-08-19T06:41:51;98952.97;;;33.63;35.29
11605;BME280;5858;43.076;25.626;2022-08-19T06:44:21;98920.47;;;33.18;36.23
11605;BME280;5858;43.076;25.626;2022-08-19T06:46:48;98934.00;;;33.20;36.63
11605;BME280;5858;43.076;25.626;2022-08-19T06:49:16;98960.84;;;33.07;38.79
11605;BME280;5858;43.076;25.626;2022-08-19T06:51:48;98914.84;;;32.73;39.00
11605;BME280;5858;43.076;25.626;2022-08-19T06:54:16;98903.44;;;32.74;38.18
11605;BME280;5858;43.076;25.626;2022-08-19T06:56:43;98907.47;;;32.77;37.91
11605;BME280;5858;43.076;25.626;2022-08-19T06:59:12;98956.22;;;32.99;38.44
11605;BME280;5858;43.076;25.626;2022-08-19T07:01:43;98933.38;;;32.39;39.64
11605;BME280;5858;43.076;25.626;2022-08-19T07:04:11;98959.50;;;32.30;41.03
11605;BME280;5858;43.076;25.626;2022-08-19T07:06:38;98887.31;;;31.67;41.22
11605;BME280;5858;43.076;25.626;2022-08-19T07:09:06;98950.56;;;32.15;42.60
11605;BME280;5858;43.076;25.626;2022-08-19T07:11:33;98949.44;;;32.25;41.34
11605;BME280;5858;43.076;25.626;2022-08-19T07:14:02;98812.72;;;31.50;41.82
11605;BME280;5858;43.076;25.626;2022-08-19T07:16:31;98847.34;;;31.56;41.64
11605;BME280;5858;43.076;25.626;2022-08-19T07:19:00;98926.53;;;31.78;43.10
11605;BME280;5858;43.076;25.626;2022-08-19T07:21:28;98892.66;;;31.34;43.77
11605;BME280;5858;43.076;25.626;2022-08-19T07:23:59;98951.63;;;31.73;43.91
11605;BME280;5858;43.076;25.626;2022-08-19T07:26:29;98794.09;;;30.83;42.53
11605;BME280;5858;43.076;25.626;2022-08-19T07:28:56;98871.16;;;31.40;42.64
11605;BME280;5858;43.076;25.626;2022-08-19T07:31:26;98914.16;;;31.67;42.25
11605;BME280;5858;43.076;25.626;2022-08-19T07:33:55;98951.97;;;31.71;41.71
11605;BME280;5858;43.076;25.626;2022-08-19T07:36:25;98919.50;;;31.34;43.27
11605;BME280;5858;43.076;25.626;2022-08-19T07:38:54;98890.06;;;31.38;42.93
11605;BME280;5858;43.076;25.626;2022-08-19T07:41:23;98856.44;;;31.18;41.61
11605;BME280;5858;43.076;25.626;2022-08-19T07:43:51;98930.31;;;31.56;41.73
11605;BME280;5858;43.076;25.626;2022-08-19T07:46:19;98894.50;;;31.59;43.93
11605;BME280;5858;43.076;25.626;2022-08-19T07:48:48;98909.66;;;31.71;41.99
11605;BME280;5858;43.076;25.626;2022-08-19T07:51:18;98956.94;;;31.86;42.42
11605;BME280;5858;43.076;25.626;2022-08-19T07:53:47;98929.00;;;31.62;42.89
11605;BME280;5858;43.076;25.626;2022-08-19T07:56:17;98924.91;;;31.68;42.34
11605;BME280;5858;43.076;25.626;2022-08-19T07:58:46;98867.94;;;31.38;41.55
11605;BME280;5858;43.076;25.626;2022-08-19T08:01:16;98963.72;;;31.98;40.59
11605;BME280;5858;43.076;25.626;2022-08-19T08:03:43;98908.53;;;31.92;40.64
11605;BME280;5858;43.076;25.626;2022-08-19T08:06:34;98891.56;;;31.64;42.02
11605;BME280;5858;43.076;25.626;2022-08-19T08:09:22;98880.06;;;31.54;42.53
11605;BME280;5858;43.076;25.626;2022-08-19T08:11:52;98920.00;;;31.82;41.87
11605;BME280;5858;43.076;25.626;2022-08-19T08:14:21;98827.00;;;31.22;41.80
11605;BME280;5858;43.076;25.626;2022-08-19T08:16:49;98876.00;;;31.89;41.82
11605;BME280;5858;43.076;25.626;2022-08-19T08:19:18;98928.84;;;32.55;41.11
11605;BME280;5858;43.076;25.626;2022-08-19T08:21:47;98885.00;;;32.37;39.48
11605;BME280;5858;43.076;25.626;2022-08-19T08:24:14;98798.38;;;31.86;38.36
11605;BME280;5858;43.076;25.626;2022-08-19T08:26:43;98859.84;;;32.21;38.65
11605;BME280;5858;43.076;25.626;2022-08-19T08:29:11;98935.38;;;32.51;38.43
11605;BME280;5858;43.076;25.626;2022-08-19T08:31:41;98802.00;;;31.69;39.67
11605;BME280;5858;43.076;25.626;2022-08-19T08:34:10;98935.44;;;32.63;39.32
11605;BME280;5858;43.076;25.626;2022-08-19T08:36:39;98879.38;;;32.24;39.30
11605;BME280;5858;43.076;25.626;2022-08-19T08:39:07;98866.88;;;32.18;38.42
11605;BME280;5858;43.076;25.626;2022-08-19T08:41:38;98898.63;;;32.42;40.69
11605;BME280;5858;43.076;25.626;2022-08-19T08:44:14;98882.22;;;32.37;39.50
11605;BME280;5858;43.076;25.626;2022-08-19T08:46:47;98881.81;;;32.47;38.77
11605;BME280;5858;43.076;25.626;2022-08-19T08:49:24;98842.56;;;32.24;37.65
11605;BME280;5858;43.076;25.626;2022-08-19T08:51:59;98930.53;;;32.69;36.48
11605;BME280;5858;43.076;25.626;2022-08-19T08:54:33;98836.66;;;32.05;36.91
11605;BME280;5858;43.076;25.626;2022-08-19T08:57:02;98906.00;;;32.38;37.46
11605;BME280;5858;43.076;25.626;2022-08-19T08:59:35;98909.06;;;32.66;36.75
11605;BME280;5858;43.076;25.626;2022-08-19T09:02:04;98838.53;;;32.13;36.54
11605;BME280;5858;43.076;25.626;2022-08-19T09:04:31;98874.31;;;32.27;36.13
11605;BME280;5858;43.076;25.626;2022-08-19T09:07:12;98905.47;;;32.65;36.78
11605;BME280;5858;43.076;25.626;2022-08-19T09:09:46;98922.22;;;32.69;36.54
11605;BME280;5858;43.076;25.626;2022-08-19T09:12:19;98899.16;;;32.77;36.46
11605;BME280;5858;43.076;25.626;2022-08-19T09:14:55;98836.88;;;32.41;35.98
11605;BME280;5858;43.076;25.626;2022-08-19T09:17:25;98845.31;;;32.45;36.63
11605;BME280;5858;43.076;25.626;2022-08-19T09:19:58;98842.13;;;32.55;36.66
11605;BME280;5858;43.076;25.626;2022-08-19T09:22:26;98847.75;;;32.67;35.97
11605;BME280;5858;43.076;25.626;2022-08-19T09:24:53;98868.63;;;32.85;35.73
11605;BME280;5858;43.076;25.626;2022-08-19T09:27:22;98847.00;;;32.79;35.98
11605;BME280;5858;43.076;25.626;2022-08-19T09:29:52;98894.59;;;33.14;36.48
11605;BME280;5858;43.076;25.626;2022-08-19T09:32:20;98826.16;;;32.73;35.39
11605;BME280;5858;43.076;25.626;2022-08-19T09:34:47;98880.16;;;33.21;35.90
11605;BME280;5858;43.076;25.626;2022-08-19T09:37:14;98823.06;;;32.74;35.77
11605;BME280;5858;43.076;25.626;2022-08-19T09:39:41;98910.25;;;33.43;35.53
11605;BME280;5858;43.076;25.626;2022-08-19T09:42:09;98801.09;;;32.69;35.61
11605;BME280;5858;43.076;25.626;2022-08-19T09:44:38;98866.47;;;33.03;36.00
11605;BME280;5858;43.076;25.626;2022-08-19T09:47:09;98886.03;;;33.19;35.92
11605;BME280;5858;43.076;25.626;2022-08-19T09:49:38;98885.28;;;33.31;36.19
11605;BME280;5858;43.076;25.626;2022-08-19T09:52:08;98854.16;;;33.25;35.32
11605;BME280;5858;43.076;25.626;2022-08-19T09:54:35;98855.66;;;33.23;35.43
11605;BME280;5858;43.076;25.626;2022-08-19T09:57:03;98868.50;;;33.27;35.96
11605;BME280;5858;43.076;25.626;2022-08-19T09:59:30;98854.25;;;33.16;36.49
11605;BME280;5858;43.076;25.626;2022-08-19T10:01:57;98861.94;;;33.44;36.59
11605;BME280;5858;43.076;25.626;2022-08-19T10:04:25;98905.31;;;33.73;35.94
11605;BME280;5858;43.076;25.626;2022-08-19T10:07:13;98862.28;;;33.55;36.71
11605;BME280;5858;43.076;25.626;2022-08-19T10:09:40;98876.19;;;33.91;34.70
11605;BME280;5858;43.076;25.626;2022-08-19T10:12:07;98844.28;;;33.85;34.57
11605;BME280;5858;43.076;25.626;2022-08-19T10:14:35;98878.50;;;33.77;34.46
11605;BME280;5858;43.076;25.626;2022-08-19T10:17:02;98872.13;;;33.40;35.10
11605;BME280;5858;43.076;25.626;2022-08-19T10:19:40;98792.28;;;33.00;35.30
11605;BME280;5858;43.076;25.626;2022-08-19T10:22:07;98829.91;;;33.34;34.48
11605;BME280;5858;43.076;25.626;2022-08-19T10:24:40;98868.53;;;33.52;34.14
11605;BME280;5858;43.076;25.626;2022-08-19T10:27:15;98819.88;;;33.42;33.40
11605;BME280;5858;43.076;25.626;2022-08-19T10:29:42;98857.69;;;33.71;32.99
11605;BME280;5858;43.076;25.626;2022-08-19T10:32:09;98733.44;;;32.70;33.50
11605;BME280;5858;43.076;25.626;2022-08-19T10:34:38;98727.16;;;32.49;34.90
11605;BME280;5858;43.076;25.626;2022-08-19T10:37:05;98794.34;;;32.91;35.01
11605;BME280;5858;43.076;25.626;2022-08-19T10:39:33;98750.06;;;32.70;35.33
11605;BME280;5858;43.076;25.626;2022-08-19T10:42:04;98859.41;;;33.63;35.24
11605;BME280;5858;43.076;25.626;2022-08-19T10:44:32;98862.75;;;33.57;35.20
11605;BME280;5858;43.076;25.626;2022-08-19T10:47:01;98875.28;;;33.87;35.09
11605;BME280;5858;43.076;25.626;2022-08-19T10:49:28;98844.34;;;34.01;34.37
11605;BME280;5858;43.076;25.626;2022-08-19T10:51:57;98787.34;;;33.79;33.81
11605;BME280;5858;43.076;25.626;2022-08-19T10:54:38;98856.72;;;34.03;32.79
11605;BME280;5858;43.076;25.626;2022-08-19T10:57:22;98826.03;;;34.24;32.53
11605;BME280;5858;43.076;25.626;2022-08-19T10:59:54;98839.41;;;34.47;32.61
11605;BME280;5858;43.076;25.626;2022-08-19T11:02:21;98790.63;;;34.21;32.86
11605;BME280;5858;43.076;25.626;2022-08-19T11:04:48;98814.47;;;34.22;32.66
11605;BME280;5858;43.076;25.626;2022-08-19T11:07:18;98843.59;;;34.40;32.45
11605;BME280;5858;43.076;25.626;2022-08-19T11:09:46;98828.72;;;34.61;32.33
11605;BME280;5858;43.076;25.626;2022-08-19T11:12:13;98827.41;;;34.30;32.53
11605;BME280;5858;43.076;25.626;2022-08-19T11:14:40;98834.41;;;34.12;32.64
11605;BME280;5858;43.076;25.626;2022-08-19T11:17:08;98717.88;;;33.51;33.02
11605;BME280;5858;43.076;25.626;2022-08-19T11:19:36;98831.69;;;34.28;32.04
11605;BME280;5858;43.076;25.626;2022-08-19T11:22:07;98854.09;;;34.47;32.56
11605;BME280;5858;43.076;25.626;2022-08-19T11:24:36;98744.03;;;33.50;30.91
11605;BME280;5858;43.076;25.626;2022-08-19T11:27:05;98763.69;;;33.33;30.72
11605;BME280;5858;43.076;25.626;2022-08-19T11:29:35;98790.94;;;33.18;31.86
11605;BME280;5858;43.076;25.626;2022-08-19T11:32:05;98791.09;;;33.34;32.66
11605;BME280;5858;43.076;25.626;2022-08-19T11:34:32;98825.53;;;33.70;31.41
11605;BME280;5858;43.076;25.626;2022-08-19T11:37:01;98838.97;;;34.32;30.62
11605;BME280;5858;43.076;25.626;2022-08-19T11:39:30;98838.84;;;34.69;30.91
11605;BME280;5858;43.076;25.626;2022-08-19T11:42:06;98846.13;;;34.73;31.05
11605;BME280;5858;43.076;25.626;2022-08-19T11:44:47;98763.75;;;34.25;31.73
11605;BME280;5858;43.076;25.626;2022-08-19T11:47:14;98790.19;;;34.47;32.14
11605;BME280;5858;43.076;25.626;2022-08-19T11:49:41;98752.34;;;34.15;31.83
11605;BME280;5858;43.076;25.626;2022-08-19T11:52:08;98754.03;;;33.79;32.55
11605;BME280;5858;43.076;25.626;2022-08-19T11:54:36;98840.63;;;34.21;32.41
11605;BME280;5858;43.076;25.626;2022-08-19T11:57:05;98729.72;;;33.11;33.01
11605;BME280;5858;43.076;25.626;2022-08-19T11:59:32;98824.38;;;33.71;33.09
11605;BME280;5858;43.076;25.626;2022-08-19T12:01:59;98781.38;;;33.65;32.14
11605;BME280;5858;43.076;25.626;2022-08-19T12:04:25;98839.00;;;34.20;31.12
11605;BME280;5858;43.076;25.626;2022-08-19T12:06:52;98731.28;;;33.73;30.25
11605;BME280;5858;43.076;25.626;2022-08-19T12:09:21;98791.59;;;34.41;29.37
11605;BME280;5858;43.076;25.626;2022-08-19T12:11:50;98756.78;;;34.31;29.68
11605;BME280;5858;43.076;25.626;2022-08-19T12:14:19;98751.00;;;34.36;29.96
11605;BME280;5858;43.076;25.626;2022-08-19T12:16:46;98790.53;;;34.73;29.63
11605;BME280;5858;43.076;25.626;2022-08-19T12:19:13;98786.44;;;34.83;28.06
11605;BME280;5858;43.076;25.626;2022-08-19T12:21:41;98738.50;;;34.74;26.70
11605;BME280;5858;43.076;25.626;2022-08-19T12:24:07;98816.81;;;35.36;27.99
11605;BME280;5858;43.076;25.626;2022-08-19T12:26:35;98791.66;;;35.32;26.93
11605;BME280;5858;43.076;25.626;2022-08-19T12:29:03;98796.97;;;35.21;27.63
11605;BME280;5858;43.076;25.626;2022-08-19T12:31:31;98782.69;;;34.91;27.83
11605;BME280;5858;43.076;25.626;2022-08-19T12:33:58;98808.69;;;34.99;28.38
11605;BME280;5858;43.076;25.626;2022-08-19T12:36:28;98696.81;;;34.30;30.43
11605;BME280;5858;43.076;25.626;2022-08-19T12:38:57;98772.97;;;34.85;30.95
11605;BME280;5858;43.076;25.626;2022-08-19T12:41:25;98761.81;;;34.69;30.95
11605;BME280;5858;43.076;25.626;2022-08-19T12:43:52;98721.44;;;34.16;31.47
11605;BME280;5858;43.076;25.626;2022-08-19T12:46:19;98765.28;;;34.23;31.67
11605;BME280;5858;43.076;25.626;2022-08-19T12:48:50;98657.19;;;33.49;31.13
11605;BME280;5858;43.076;25.626;2022-08-19T12:51:20;98723.16;;;33.80;30.62
11605;BME280;5858;43.076;25.626;2022-08-19T12:53:47;98756.94;;;34.23;30.06
11605;BME280;5858;43.076;25.626;2022-08-19T12:56:15;98791.69;;;34.72;30.03
11605;BME280;5858;43.076;25.626;2022-08-19T12:58:43;98750.56;;;34.50;30.30
11605;BME280;5858;43.076;25.626;2022-08-19T13:01:13;98766.50;;;34.65;30.55
11605;BME280;5858;43.076;25.626;2022-08-19T13:03:45;98798.50;;;35.03;30.26
11605;BME280;5858;43.076;25.626;2022-08-19T13:06:14;98765.00;;;34.84;30.19
11605;BME280;5858;43.076;25.626;2022-08-19T13:08:41;98716.44;;;34.81;30.16